Time;durP1;ratioP1;P1;durP2;ratioP2;P2;SDS_P1;SDS_P2;PMS_P1;PMS_P2;Temp;Humidity;BMP_temperature;BMP_pressure;BME280_temperature;BME280_humidity;BME280_pressure;Samples;Min_cycle;Max_cycle;Signal;HPM_P1;HPM_P2
2024/01/10 00:01:07;;;;;;;32.42;10.70;;;-4.90;99.90;;;;;;5052763;28;20478;-71
2024/01/10 00:03:33;;;;;;;33.35;11.05;;;-5.00;99.90;;;;;;5053021;28;20025;-71
2024/01/10 00:05:58;;;;;;;25.13;9.30;;;-4.90;99.90;;;;;;5052671;28;20029;-71
2024/01/10 00:08:24;;;;;;;25.80;10.15;;;-5.00;99.90;;;;;;5052674;28;20021;-71
2024/01/10 00:10:51;;;;;;;20.88;9.32;;;-5.00;99.90;;;;;;5053075;28;20390;-71
2024/01/10 00:13:17;;;;;;;22.52;8.88;;;-5.00;99.90;;;;;;5052565;28;20036;-71
2024/01/10 00:15:42;;;;;;;17.95;8.88;;;-5.00;99.90;;;;;;5053088;28;20036;-71
2024/01/10 00:18:08;;;;;;;26.25;8.90;;;-5.00;99.90;;;;;;5052870;28;20147;-71
2024/01/10 00:20:34;;;;;;;20.73;9.25;;;-5.00;99.90;;;;;;5052537;28;20060;-71
2024/01/10 00:22:59;;;;;;;26.77;9.68;;;-5.10;99.90;;;;;;5052534;28;20470;-72
2024/01/10 00:25:25;;;;;;;21.67;8.30;;;-5.10;99.90;;;;;;5052681;28;20386;-71
2024/01/10 00:27:50;;;;;;;20.90;9.25;;;-5.10;99.90;;;;;;5052833;28;20116;-71
2024/01/10 00:30:16;;;;;;;19.63;8.75;;;-5.00;99.90;;;;;;5052545;28;20025;-71
2024/01/10 00:32:41;;;;;;;20.80;8.75;;;-5.10;99.90;;;;;;5052885;28;20033;-71
2024/01/10 00:35:07;;;;;;;19.15;8.95;;;-5.10;99.90;;;;;;5053029;28;20029;-72
2024/01/10 00:37:32;;;;;;;20.13;9.13;;;-5.10;99.90;;;;;;5056547;28;20040;-71
2024/01/10 00:39:58;;;;;;;27.67;9.25;;;-5.00;99.90;;;;;;5056003;28;20024;-71
2024/01/10 00:42:23;;;;;;;21.90;9.48;;;-5.10;99.90;;;;;;5056483;28;20037;-71
2024/01/10 00:44:49;;;;;;;21.17;9.38;;;-5.10;99.90;;;;;;5056510;28;20413;-71
2024/01/10 00:47:14;;;;;;;21.55;8.90;;;-5.20;99.90;;;;;;5056521;28;20029;-72
2024/01/10 00:49:40;;;;;;;28.67;9.95;;;-5.20;99.90;;;;;;5056416;28;20040;-71
2024/01/10 00:52:05;;;;;;;17.88;9.23;;;-5.20;99.90;;;;;;5056271;28;20025;-71
2024/01/10 00:54:31;;;;;;;23.83;8.95;;;-5.30;99.90;;;;;;5056184;28;20040;-71
2024/01/10 00:56:56;;;;;;;24.98;10.02;;;-5.20;99.90;;;;;;5055863;28;20066;-71
2024/01/10 00:59:22;;;;;;;21.00;9.50;;;-5.20;99.90;;;;;;5056132;28;20029;-71
2024/01/10 01:01:47;;;;;;;22.15;9.27;;;-5.20;99.90;;;;;;5056231;28;20574;-71
2024/01/10 01:04:13;;;;;;;26.83;10.45;;;-5.30;1.00;;;;;;5056209;28;20025;-71
2024/01/10 01:06:38;;;;;;;25.42;11.45;;;-5.50;1.00;;;;;;5055982;28;20029;-71
2024/01/10 01:09:04;;;;;;;22.02;10.13;;;-5.60;1.00;;;;;;5055594;28;20025;-71
2024/01/10 01:11:29;;;;;;;22.17;9.73;;;-5.60;1.00;;;;;;5056156;28;20025;-71
2024/01/10 01:13:55;;;;;;;26.55;11.60;;;-5.70;16.50;;;;;;5055650;28;20021;-71
2024/01/10 01:16:21;;;;;;;28.98;11.07;;;-5.80;99.90;;;;;;5055948;28;20029;-71
2024/01/10 01:18:46;;;;;;;25.20;10.68;;;-5.80;99.90;;;;;;5055853;28;20112;-71
2024/01/10 01:21:12;;;;;;;25.63;10.68;;;-5.80;99.90;;;;;;5055431;28;20065;-71
2024/01/10 01:23:37;;;;;;;21.40;9.85;;;-5.70;99.90;;;;;;5055715;28;20051;-72
2024/01/10 01:26:03;;;;;;;22.90;10.18;;;-5.70;99.90;;;;;;5055711;28;20048;-71
2024/01/10 01:28:29;;;;;;;20.13;9.35;;;-5.60;99.90;;;;;;5055645;28;20078;-70
2024/01/10 01:30:55;;;;;;;21.95;9.38;;;-5.50;99.90;;;;;;5055219;28;20504;-71
2024/01/10 01:33:21;;;;;;;22.33;8.02;;;-5.50;99.90;;;;;;5055642;28;20086;-71
2024/01/10 01:35:46;;;;;;;23.90;9.45;;;-5.40;99.90;;;;;;5055296;28;20407;-71
2024/01/10 01:38:12;;;;;;;25.08;9.57;;;-5.50;99.90;;;;;;5055465;28;20029;-71
2024/01/10 01:40:37;;;;;;;19.85;9.07;;;-5.40;99.90;;;;;;5054927;28;20079;-70
2024/01/10 01:43:18;;;;;;;24.10;9.60;;;-5.40;99.90;;;;;;5055415;28;20025;-70
2024/01/10 01:45:44;;;;;;;19.60;8.32;;;-5.50;99.90;;;;;;5054989;28;20116;-70
2024/01/10 01:48:10;;;;;;;27.20;10.52;;;-5.40;99.90;;;;;;5055263;28;20548;-70
2024/01/10 01:50:35;;;;;;;23.35;9.80;;;-5.40;99.90;;;;;;5054877;28;20025;-70
2024/01/10 01:53:01;;;;;;;23.65;9.05;;;-5.40;99.90;;;;;;5055139;28;20068;-70
2024/01/10 01:55:26;;;;;;;24.60;9.20;;;-5.50;99.90;;;;;;5055289;28;20033;-70
2024/01/10 01:57:52;;;;;;;24.20;9.10;;;-5.40;99.90;;;;;;5055093;28;20147;-70
2024/01/10 02:00:18;;;;;;;20.67;9.07;;;-5.50;99.90;;;;;;5054820;28;20118;-70
2024/01/10 02:02:44;;;;;;;25.05;9.38;;;-5.40;99.90;;;;;;5054777;28;20067;-71
2024/01/10 02:05:10;;;;;;;27.20;10.30;;;-5.40;99.90;;;;;;5054918;28;20499;-71
2024/01/10 02:07:35;;;;;;;20.63;8.73;;;-5.40;99.90;;;;;;5054888;28;20112;-70
2024/01/10 02:10:01;;;;;;;22.27;9.18;;;-5.40;99.90;;;;;;5054918;28;20479;-71
2024/01/10 02:12:26;;;;;;;20.92;8.82;;;-5.40;99.90;;;;;;5054865;28;20025;-70
2024/01/10 02:14:52;;;;;;;23.85;9.15;;;-5.50;99.90;;;;;;5054884;28;20031;-70
2024/01/10 02:17:18;;;;;;;23.40;9.88;;;-5.40;99.10;;;;;;5054867;28;20082;-70
2024/01/10 02:19:43;;;;;;;25.15;8.77;;;-5.40;99.90;;;;;;5054307;28;20028;-70
2024/01/10 02:22:10;;;;;;;19.15;8.52;;;-5.40;99.90;;;;;;5054601;28;20036;-70
2024/01/10 02:24:36;;;;;;;21.00;8.60;;;-5.40;98.90;;;;;;5054581;28;20021;-70
2024/01/10 02:27:02;;;;;;;20.55;8.02;;;-5.40;85.40;;;;;;5054675;28;20360;-70
2024/01/10 02:29:28;;;;;;;17.73;6.47;;;-5.40;93.40;;;;;;5054041;28;20031;-70
2024/01/10 02:31:53;;;;;;;22.00;8.93;;;-5.40;95.20;;;;;;5054180;28;20029;-70
2024/01/10 02:34:19;;;;;;;20.80;9.57;;;-5.40;97.10;;;;;;5054454;28;20024;-70
2024/01/10 02:36:45;;;;;;;23.33;11.23;;;-5.50;93.00;;;;;;5054105;28;20045;-70
2024/01/10 02:39:10;;;;;;;25.20;9.63;;;-5.60;96.60;;;;;;5054186;28;20482;-70
2024/01/10 02:41:36;;;;;;;25.50;8.93;;;-5.50;99.00;;;;;;5054281;28;20039;-70
2024/01/10 02:44:02;;;;;;;24.80;8.73;;;-5.50;96.10;;;;;;5054270;28;20029;-70
2024/01/10 02:46:27;;;;;;;22.95;9.35;;;-5.50;81.10;;;;;;5054201;28;20560;-70
2024/01/10 02:48:55;;;;;;;24.70;10.18;;;-5.50;50.10;;;;;;5054127;28;20036;-70
2024/01/10 02:51:21;;;;;;;25.30;9.90;;;-5.40;37.90;;;;;;5054263;28;20368;-70
2024/01/10 02:53:46;;;;;;;26.90;9.50;;;-5.50;43.80;;;;;;5054187;28;20035;-71
2024/01/10 02:56:12;;;;;;;24.80;9.88;;;-5.40;41.00;;;;;;5053931;28;20037;-70
2024/01/10 02:58:37;;;;;;;24.80;8.98;;;-5.60;53.60;;;;;;5053218;28;20059;-70
2024/01/10 03:01:03;;;;;;;26.75;9.98;;;-5.50;91.90;;;;;;5053513;28;20064;-70
2024/01/10 03:03:28;;;;;;;23.23;10.05;;;-5.60;92.20;;;;;;5053772;28;20044;-70
2024/01/10 03:05:54;;;;;;;21.92;9.88;;;-5.70;99.90;;;;;;5053905;28;20029;-70
2024/01/10 03:08:20;;;;;;;24.58;10.20;;;-5.70;99.90;;;;;;5053791;28;20029;-70
2024/01/10 03:10:45;;;;;;;23.30;9.90;;;-5.60;99.90;;;;;;5053847;28;20025;-70
2024/01/10 03:13:11;;;;;;;23.80;9.52;;;-5.60;99.90;;;;;;5053617;28;20079;-70
2024/01/10 03:15:36;;;;;;;23.27;9.88;;;-5.60;99.90;;;;;;5053686;28;20116;-70
2024/01/10 03:18:02;;;;;;;22.92;10.18;;;-5.60;99.90;;;;;;5053590;28;20037;-70
2024/01/10 03:20:27;;;;;;;22.23;9.30;;;-5.70;99.90;;;;;;5053401;28;20033;-70
2024/01/10 03:22:53;;;;;;;25.45;10.00;;;-5.60;99.90;;;;;;5053227;28;20048;-70
2024/01/10 03:25:18;;;;;;;20.25;8.95;;;-5.70;78.60;;;;;;5053567;28;20028;-70
2024/01/10 03:27:44;;;;;;;23.67;9.57;;;-5.70;75.10;;;;;;5053369;28;20096;-70
2024/01/10 03:30:10;;;;;;;23.75;9.80;;;-5.70;78.30;;;;;;5053003;28;20032;-70
2024/01/10 03:32:35;;;;;;;24.92;9.57;;;-5.50;52.10;;;;;;5053392;28;20033;-70
2024/01/10 03:35:01;;;;;;;25.58;9.93;;;-5.70;35.00;;;;;;5053220;28;20040;-70
2024/01/10 03:37:26;;;;;;;21.73;8.95;;;-5.60;7.90;;;;;;5053430;28;20029;-70
2024/01/10 03:39:52;;;;;;;21.25;9.23;;;-5.50;1.00;;;;;;5052922;28;20025;-70
2024/01/10 03:42:17;;;;;;;22.73;9.07;;;-5.50;1.00;;;;;;5053023;28;20017;-70
2024/01/10 03:44:43;;;;;;;18.02;8.40;;;-5.40;1.00;;;;;;5052850;28;20017;-70
2024/01/10 03:47:09;;;;;;;20.85;9.05;;;-5.40;1.00;;;;;;5053327;28;20028;-70
2024/01/10 03:49:34;;;;;;;20.60;8.00;;;-5.40;1.00;;;;;;5052831;28;20040;-70
2024/01/10 03:52:00;;;;;;;20.50;8.32;;;-5.40;1.00;;;;;;5053207;28;20139;-70
2024/01/10 03:54:25;;;;;;;21.88;8.93;;;-5.30;1.00;;;;;;5053226;28;20031;-70
2024/01/10 03:56:51;;;;;;;21.50;8.75;;;-5.30;1.00;;;;;;5053251;28;20120;-70
2024/01/10 03:59:16;;;;;;;25.20;9.75;;;-5.30;1.00;;;;;;5053134;28;20514;-70
2024/01/10 04:01:42;;;;;;;20.67;8.80;;;-5.30;1.00;;;;;;5052650;28;20025;-70
2024/01/10 04:04:07;;;;;;;21.10;7.95;;;-5.40;1.00;;;;;;5053152;28;20029;-70
2024/01/10 04:06:34;;;;;;;22.17;9.02;;;-5.30;1.00;;;;;;5053141;28;20025;-70
2024/01/10 04:09:00;;;;;;;19.63;8.35;;;-5.30;1.00;;;;;;5053389;28;20498;-70
2024/01/10 04:11:26;;;;;;;21.23;8.77;;;-5.30;1.00;;;;;;5056655;28;20021;-70
2024/01/10 04:13:51;;;;;;;20.40;8.55;;;-5.20;1.00;;;;;;5057053;28;20382;-70
2024/01/10 04:16:17;;;;;;;24.48;9.63;;;-5.40;1.00;;;;;;5057180;28;20049;-70
2024/01/10 04:18:42;;;;;;;16.20;7.88;;;-5.40;1.00;;;;;;5056977;28;20025;-70
2024/01/10 04:21:08;;;;;;;22.33;9.88;;;-5.50;1.00;;;;;;5056532;28;20025;-70
2024/01/10 04:23:34;;;;;;;21.95;9.05;;;-5.60;1.00;;;;;;5056890;28;20021;-70
2024/01/10 04:26:01;;;;;;;23.15;9.75;;;-5.60;1.00;;;;;;5056846;28;20039;-70
2024/01/10 04:28:26;;;;;;;28.35;11.10;;;-5.60;1.00;;;;;;5056941;28;20499;-70
2024/01/10 04:30:52;;;;;;;22.92;9.63;;;-5.70;1.00;;;;;;5056849;28;20119;-70
2024/01/10 04:33:17;;;;;;;26.67;10.25;;;-5.60;1.00;;;;;;5056894;28;20037;-69
2024/01/10 04:35:43;;;;;;;24.92;10.20;;;-5.60;1.00;;;;;;5056357;28;20400;-70
2024/01/10 04:38:09;;;;;;;20.60;9.27;;;-5.60;1.00;;;;;;5056202;28;20483;-70
2024/01/10 04:40:34;;;;;;;23.52;9.60;;;-5.70;1.00;;;;;;5056316;28;20068;-70
2024/01/10 04:43:00;;;;;;;21.75;9.43;;;-5.60;7.30;;;;;;5056495;28;20383;-70
2024/01/10 04:45:25;;;;;;;23.30;9.80;;;-5.60;21.50;;;;;;5056655;28;20025;-71
2024/01/10 04:47:51;;;;;;;20.83;9.55;;;-5.70;39.70;;;;;;5056607;28;20039;-70
2024/01/10 04:50:16;;;;;;;25.63;10.85;;;-5.70;52.40;;;;;;5056600;28;20486;-70
2024/01/10 04:52:42;;;;;;;25.80;10.18;;;-5.70;99.90;;;;;;5055888;28;20021;-70
2024/01/10 04:55:08;;;;;;;23.80;10.10;;;-5.70;99.90;;;;;;5056309;28;20155;-70
2024/01/10 04:57:33;;;;;;;30.83;11.60;;;-5.80;99.90;;;;;;5055835;28;20028;-69
2024/01/10 04:59:59;;;;;;;28.27;12.30;;;-6.30;99.90;;;;;;5055901;28;20037;-69
2024/01/10 05:02:24;;;;;;;30.90;12.15;;;-5.90;99.90;;;;;;5056222;28;20056;-69
2024/01/10 05:04:50;;;;;;;28.55;12.38;;;-6.00;99.90;;;;;;5056234;28;20100;-69
2024/01/10 05:07:15;;;;;;;26.30;11.18;;;-6.00;99.90;;;;;;5056298;28;20427;-69
2024/01/10 05:09:41;;;;;;;30.23;11.18;;;-6.00;99.90;;;;;;5055993;28;20102;-70
2024/01/10 05:12:06;;;;;;;26.13;10.60;;;-6.10;99.90;;;;;;5055586;28;20028;-69
2024/01/10 05:14:32;;;;;;;27.90;11.85;;;-6.00;99.90;;;;;;5055664;28;20090;-70
2024/01/10 05:16:57;;;;;;;32.58;11.80;;;-6.00;99.90;;;;;;5055891;28;20039;-69
2024/01/10 05:19:23;;;;;;;29.20;11.60;;;-6.10;99.90;;;;;;5055467;28;20029;-69
2024/01/10 05:21:49;;;;;;;28.20;10.77;;;-6.10;99.90;;;;;;5055163;28;20033;-69
2024/01/10 05:24:14;;;;;;;32.03;11.57;;;-6.00;99.90;;;;;;5055731;28;20130;-69
2024/01/10 05:26:40;;;;;;;27.52;11.18;;;-5.80;99.90;;;;;;5055450;28;20021;-70
2024/01/10 05:29:05;;;;;;;24.90;10.95;;;-5.80;99.90;;;;;;5055637;28;20044;-70
2024/01/10 05:31:31;;;;;;;29.42;11.13;;;-5.80;99.90;;;;;;5055298;28;20036;-70
2024/01/10 05:33:56;;;;;;;29.13;11.00;;;-5.80;99.90;;;;;;5055582;28;20387;-69
2024/01/10 05:36:23;;;;;;;24.20;11.20;;;-5.80;99.90;;;;;;5055287;28;20044;-69
2024/01/10 05:38:48;;;;;;;21.25;9.07;;;-5.80;99.90;;;;;;5055674;28;20036;-69
2024/01/10 05:41:14;;;;;;;24.45;10.65;;;-5.70;99.90;;;;;;5054972;28;20037;-69
2024/01/10 05:43:40;;;;;;;14.35;7.28;;;-5.70;99.90;;;;;;5054969;28;20021;-69
2024/01/10 05:46:05;;;;;;;24.05;9.95;;;-5.60;99.90;;;;;;5054911;28;20056;-69
2024/01/10 05:48:32;;;;;;;17.77;8.38;;;-5.50;99.90;;;;;;5055273;28;20445;-69
2024/01/10 05:50:57;;;;;;;23.10;9.30;;;-5.60;99.90;;;;;;5055318;28;20544;-70
2024/01/10 05:53:24;;;;;;;22.23;8.45;;;-5.60;99.90;;;;;;5055275;28;20025;-70
2024/01/10 05:55:50;;;;;;;21.25;9.15;;;-5.50;99.90;;;;;;5054827;28;20039;-69
2024/01/10 05:58:16;;;;;;;28.85;13.15;;;-5.50;99.90;;;;;;5055123;28;20560;-70
2024/01/10 06:00:42;;;;;;;34.67;12.73;;;-5.40;99.90;;;;;;5054797;28;20029;-70
2024/01/10 06:03:07;;;;;;;26.60;11.25;;;-5.60;99.90;;;;;;5054691;28;20107;-70
2024/01/10 06:05:33;;;;;;;32.30;11.30;;;-5.60;99.90;;;;;;5054964;28;20029;-69
2024/01/10 06:07:58;;;;;;;24.00;11.57;;;-5.60;99.90;;;;;;5055013;28;20035;-69
2024/01/10 06:10:24;;;;;;;28.63;12.05;;;-5.60;99.90;;;;;;5054937;28;20021;-69
2024/01/10 06:12:49;;;;;;;32.20;10.88;;;-5.60;99.90;;;;;;5054555;28;20032;-69
2024/01/10 06:15:15;;;;;;;32.63;12.65;;;-5.60;99.90;;;;;;5054352;28;20025;-69
2024/01/10 06:17:41;;;;;;;27.10;12.52;;;-5.50;99.90;;;;;;5054760;28;20033;-69
2024/01/10 06:20:07;;;;;;;31.20;12.60;;;-5.70;99.90;;;;;;5054589;28;20116;-70
2024/01/10 06:22:33;;;;;;;32.47;12.23;;;-5.70;99.90;;;;;;5054717;28;20036;-69
2024/01/10 06:24:58;;;;;;;33.22;12.75;;;-5.80;99.90;;;;;;5054575;28;20037;-70
2024/01/10 06:27:24;;;;;;;26.88;11.98;;;-5.80;99.90;;;;;;5054668;28;20047;-70
2024/01/10 06:29:50;;;;;;;31.05;12.25;;;-5.80;99.90;;;;;;5054584;28;20032;-69
2024/01/10 06:32:15;;;;;;;25.02;11.35;;;-5.90;99.90;;;;;;5054446;28;20035;-69
2024/01/10 06:34:41;;;;;;;31.50;13.52;;;-5.70;99.90;;;;;;5054388;28;20035;-71
2024/01/10 06:37:08;;;;;;;30.67;12.30;;;-5.70;99.90;;;;;;5053986;28;20059;-70
2024/01/10 06:39:33;;;;;;;29.27;12.77;;;-5.80;99.90;;;;;;5054288;28;20033;-70
2024/01/10 06:41:59;;;;;;;33.22;12.52;;;-5.90;99.90;;;;;;5054253;28;20415;-70
2024/01/10 06:44:24;;;;;;;32.72;12.27;;;-5.80;99.90;;;;;;5054267;28;20025;-69
2024/01/10 06:46:51;;;;;;;34.42;13.48;;;-5.70;99.90;;;;;;5054399;28;20070;-70
2024/01/10 06:49:16;;;;;;;33.75;12.23;;;-5.70;99.90;;;;;;5053966;28;20017;-70
2024/01/10 06:51:42;;;;;;;36.50;13.20;;;-5.80;99.90;;;;;;5053997;28;20086;-70
2024/01/10 06:54:08;;;;;;;32.63;13.00;;;-5.70;99.90;;;;;;5053972;28;20017;-70
2024/01/10 06:56:35;;;;;;;27.38;11.98;;;-5.60;99.90;;;;;;5053975;28;20403;-69
2024/01/10 06:59:01;;;;;;;35.22;12.35;;;-5.50;99.90;;;;;;5053863;28;20055;-70
2024/01/10 07:01:27;;;;;;;34.50;13.82;;;-5.40;99.90;;;;;;5053378;28;20028;-70
2024/01/10 07:03:55;;;;;;;33.17;12.18;;;-5.50;99.90;;;;;;5053807;28;20112;-70
2024/01/10 07:06:21;;;;;;;35.03;13.73;;;-5.50;99.90;;;;;;5053503;28;20523;-70
2024/01/10 07:08:49;;;;;;;30.23;12.57;;;-5.60;99.90;;;;;;5053077;28;20025;-70
2024/01/10 07:11:15;;;;;;;30.08;12.85;;;-5.50;95.50;;;;;;5053622;28;20024;-70
2024/01/10 07:13:41;;;;;;;30.80;11.95;;;-5.50;71.30;;;;;;5053656;28;20536;-70
2024/01/10 07:16:07;;;;;;;33.58;12.75;;;-5.30;48.20;;;;;;5053458;28;20094;-70
2024/01/10 07:18:33;;;;;;;31.48;11.73;;;-5.30;44.50;;;;;;5053187;28;20029;-71
2024/01/10 07:20:59;;;;;;;35.28;13.77;;;-5.40;32.80;;;;;;5053388;28;20375;-70
2024/01/10 07:23:25;;;;;;;37.58;13.73;;;-5.40;35.00;;;;;;5053617;28;20029;-69
2024/01/10 07:25:50;;;;;;;31.55;12.32;;;-5.40;65.70;;;;;;5053614;28;20033;-69
2024/01/10 07:28:17;;;;;;;36.08;12.90;;;-5.20;23.80;;;;;;5053414;28;20094;-69
2024/01/10 07:30:44;;;;;;;35.20;14.07;;;-5.20;1.00;;;;;;5052946;28;20032;-69
2024/01/10 07:33:10;;;;;;;36.22;13.43;;;-5.20;1.00;;;;;;5053312;28;20513;-69
2024/01/10 07:35:36;;;;;;;36.90;14.48;;;-5.10;1.00;;;;;;5053107;28;20448;-69
2024/01/10 07:38:01;;;;;;;37.33;14.40;;;-5.10;1.00;;;;;;5052686;28;20116;-69
2024/01/10 07:40:27;;;;;;;30.77;13.25;;;-5.20;1.00;;;;;;5053124;28;20033;-69
2024/01/10 07:42:52;;;;;;;33.10;13.75;;;-5.10;1.00;;;;;;5052972;28;20047;-70
2024/01/10 07:45:18;;;;;;;32.42;13.23;;;-5.10;1.00;;;;;;5052835;28;20382;-70
2024/01/10 07:47:43;;;;;;;36.67;14.52;;;-5.00;1.00;;;;;;5052877;28;20025;-69
2024/01/10 07:50:10;;;;;;;35.92;13.98;;;-5.00;1.00;;;;;;5053110;28;20033;-70
2024/01/10 07:52:36;;;;;;;47.75;16.02;;;-5.00;1.00;;;;;;5052719;28;20074;-68
2024/01/10 07:55:04;;;;;;;40.67;16.17;;;-5.00;1.00;;;;;;5053133;28;20505;-70
2024/01/10 07:57:30;;;;;;;35.35;14.30;;;-4.90;1.00;;;;;;5052718;28;20048;-69
2024/01/10 07:59:56;;;;;;;40.08;15.35;;;-4.90;1.00;;;;;;5052921;28;20509;-69
2024/01/10 08:02:22;;;;;;;42.42;15.27;;;-4.70;1.00;;;;;;5053096;28;20021;-69
2024/01/10 08:04:47;;;;;;;38.83;13.82;;;-4.70;1.00;;;;;;5053035;28;20032;-69
2024/01/10 08:07:13;;;;;;;38.50;14.98;;;-4.40;1.00;;;;;;5052821;28;20036;-69
2024/01/10 08:09:39;;;;;;;35.78;14.55;;;-4.10;1.00;;;;;;5052900;28;20033;-69
2024/01/10 08:12:05;;;;;;;35.65;14.40;;;;;;;;;;5052980;28;20033;-69
2024/01/10 08:14:32;;;;;;;38.67;15.10;;;;;;;;;;5053015;28;20025;-69
2024/01/10 08:17:00;;;;;;;36.28;15.05;;;;;;;;;;5052871;28;20056;-70
2024/01/10 08:19:26;;;;;;;37.72;16.15;;;;;;;;;;5052895;28;20384;-70
2024/01/10 08:21:52;;;;;;;37.63;14.60;;;;;;;;;;5052513;28;20026;-70
2024/01/10 08:24:19;;;;;;;41.40;15.90;;;;;;;;;;5052309;28;20024;-69
2024/01/10 08:26:47;;;;;;;31.58;13.73;;;;;;;;;;5052260;28;20025;-70
2024/01/10 08:29:12;;;;;;;32.28;16.23;;;-1.70;1.00;;;;;;5052600;28;20506;-69
2024/01/10 08:31:38;;;;;;;36.30;16.15;;;-1.40;1.00;;;;;;5052762;28;20021;-69
2024/01/10 08:34:04;;;;;;;33.28;15.02;;;-1.40;1.00;;;;;;5052770;28;20033;-69
2024/01/10 08:36:29;;;;;;;36.75;15.50;;;-0.90;99.90;;;;;;5052408;28;20499;-70
2024/01/10 08:38:55;;;;;;;36.22;15.93;;;-0.90;1.00;;;;;;5052697;28;20475;-70
2024/01/10 08:41:20;;;;;;;36.40;16.20;;;-0.40;1.00;;;;;;5052321;28;20033;-69
2024/01/10 08:43:47;;;;;;;38.53;16.02;;;-0.30;1.00;;;;;;5052616;28;20025;-69
2024/01/10 08:46:12;;;;;;;38.60;16.38;;;-0.60;1.00;;;;;;5052575;28;20411;-70
2024/01/10 08:48:38;;;;;;;35.72;17.13;;;-0.50;1.00;;;;;;5052692;28;20025;-70
2024/01/10 08:51:04;;;;;;;33.30;15.43;;;0.00;1.00;;;;;;5052585;28;20029;-70
2024/01/10 08:53:29;;;;;;;38.38;16.20;;;-0.40;1.00;;;;;;5052579;28;20041;-70
2024/01/10 08:55:55;;;;;;;39.17;17.45;;;0.30;1.00;;;;;;5052519;28;20487;-70
2024/01/10 08:58:21;;;;;;;39.75;17.65;;;0.20;1.00;;;;;;5056350;28;20039;-70
2024/01/10 09:00:47;;;;;;;38.03;17.15;;;;;;;;;;5055822;28;20031;-70
2024/01/10 09:03:14;;;;;;;38.80;17.02;;;;;;;;;;5056038;28;20052;-70
2024/01/10 09:05:41;;;;;;;39.60;19.38;;;;;;;;;;5056078;28;20065;-70
2024/01/10 09:08:07;;;;;;;39.83;17.38;;;;;;;;;;5055697;28;20041;-71
2024/01/10 09:10:34;;;;;;;39.35;18.17;;;;;;;;;;5055856;28;20033;-70
2024/01/10 09:13:00;;;;;;;35.17;16.88;;;;;;;;;;5055943;28;20418;-70
2024/01/10 09:15:25;;;;;;;37.83;17.27;;;1.90;21.90;;;;;;5056044;28;20039;-70
2024/01/10 09:17:52;;;;;;;38.60;18.02;;;;;;;;;;5055383;28;20025;-71
2024/01/10 09:20:20;;;;;;;36.92;17.45;;;;;;;;;;5055554;28;20037;-70
2024/01/10 09:22:45;;;;;;;39.85;16.98;;;1.50;1.00;;;;;;5055740;28;20021;-70
2024/01/10 09:25:12;;;;;;;38.50;17.17;;;0.70;1.00;;;;;;5055721;28;20039;-70
2024/01/10 09:27:41;;;;;;;36.88;17.13;;;1.60;1.00;;;;;;5055689;28;20017;-70
2024/01/10 09:30:08;;;;;;;35.30;17.33;;;2.50;4.90;;;;;;5055194;28;20075;-70
2024/01/10 09:32:35;;;;;;;37.50;18.08;;;2.40;1.00;;;;;;5055167;28;20059;-70
2024/01/10 09:35:00;;;;;;;37.65;18.23;;;2.80;1.00;;;;;;5054885;28;20025;-70
2024/01/10 09:37:26;;;;;;;33.53;16.17;;;3.00;4.70;;;;;;5055561;28;20103;-70
2024/01/10 09:39:52;;;;;;;35.95;16.73;;;3.10;1.00;;;;;;5055508;28;20048;-70
2024/01/10 09:42:18;;;;;;;34.75;16.35;;;3.50;1.00;;;;;;5055243;28;20474;-71
2024/01/10 09:44:46;;;;;;;33.15;16.15;;;;;;;;;;5055547;28;20047;-71
2024/01/10 09:47:15;;;;;;;34.15;15.70;;;;;;;;;;5055341;28;20071;-71
2024/01/10 09:49:44;;;;;;;35.28;16.95;;;;;;;;;;5055252;28;20513;-71
2024/01/10 09:52:12;;;;;;;32.53;16.17;;;;;;;;;;5055221;28;20021;-71
2024/01/10 09:54:40;;;;;;;37.20;17.30;;;;;;;;;;5054808;28;20029;-71
2024/01/10 09:57:06;;;;;;;31.38;15.93;;;;;;;;;;5055171;28;20032;-70
2024/01/10 09:59:33;;;;;;;30.92;14.60;;;;;;;;;;5055098;28;20061;-71
2024/01/10 10:02:00;;;;;;;30.00;14.35;;;;;;;;;;5055041;28;20483;-71
2024/01/10 10:04:29;;;;;;;33.53;16.48;;;;;;;;;;5055177;28;20083;-71
2024/01/10 10:07:03;;;;;;;35.90;15.32;;;;;;;;;;5054588;28;20057;-71
2024/01/10 10:09:30;;;;;;;36.22;16.02;;;;;;;;;;5054554;28;20382;-71
2024/01/10 10:11:57;;;;;;;35.38;16.02;;;3.50;1.00;;;;;;5054492;28;20028;-71
2024/01/10 10:14:25;;;;;;;31.00;15.32;;;3.90;1.00;;;;;;5054911;28;20086;-70
2024/01/10 10:16:51;;;;;;;34.83;15.73;;;3.90;1.00;;;;;;5054686;28;20068;-71
2024/01/10 10:19:25;;;;;;;33.47;17.25;;;3.80;1.00;;;;;;5054933;28;20037;-71
2024/01/10 10:21:51;;;;;;;28.38;14.13;;;3.50;1.00;;;;;;5054394;28;20494;-71
2024/01/10 10:24:17;;;;;;;32.53;14.90;;;3.70;1.00;;;;;;5054369;28;20032;-71
2024/01/10 10:26:42;;;;;;;33.88;15.45;;;4.40;1.00;;;;;;5054987;28;20545;-72
2024/01/10 10:29:09;;;;;;;31.35;14.98;;;4.80;1.00;;;;;;5054737;28;20168;-71
2024/01/10 10:31:35;;;;;;;30.20;15.32;;;5.00;1.00;;;;;;5054253;28;20503;-71
2024/01/10 10:34:02;;;;;;;28.23;14.70;;;4.90;1.00;;;;;;5053978;28;20546;-71
2024/01/10 10:36:31;;;;;;;29.25;14.73;;;5.00;1.00;;;;;;5054143;28;20044;-71
2024/01/10 10:39:00;;;;;;;29.63;15.63;;;5.30;1.00;;;;;;5054195;28;20033;-72
2024/01/10 10:41:27;;;;;;;29.77;14.57;;;5.70;1.00;;;;;;5053973;28;20383;-72
2024/01/10 10:43:54;;;;;;;30.15;15.55;;;5.50;1.00;;;;;;5054102;28;20036;-72
2024/01/10 10:46:23;;;;;;;32.22;15.80;;;5.00;1.00;;;;;;5054026;28;20116;-72
2024/01/10 10:48:48;;;;;;;34.47;15.10;;;4.60;1.00;;;;;;5054018;28;20032;-72
2024/01/10 10:51:36;;;;;;;36.55;15.90;;;4.90;1.00;;;;;;5054029;28;20033;-71
2024/01/10 10:54:03;;;;;;;32.95;15.88;;;4.40;1.00;;;;;;5054081;28;20033;-71
2024/01/10 10:56:31;;;;;;;30.83;15.32;;;;;;;;;;5054070;28;20111;-71
2024/01/10 10:58:57;;;;;;;30.20;15.45;;;;;;;;;;5054052;28;20037;-72
2024/01/10 11:01:23;;;;;;;28.75;14.55;;;4.60;1.00;;;;;;5053074;28;20017;-71
2024/01/10 11:03:49;;;;;;;35.45;16.15;;;3.30;1.00;;;;;;5053942;28;20107;-72
2024/01/10 11:06:17;;;;;;;33.38;15.77;;;3.50;1.00;;;;;;5053449;28;20068;-72
2024/01/10 11:08:46;;;;;;;30.98;16.08;;;3.90;1.00;;;;;;5053647;28;20078;-72
2024/01/10 11:11:50;;;;;;;32.25;15.20;;;4.80;1.00;;;;;;5053632;28;20028;-72
2024/01/10 11:14:44;;;;;;;37.10;17.73;;;4.70;1.00;;;;;;5053637;28;20029;-72
2024/01/10 11:17:46;;;;;;;33.15;16.75;;;4.30;1.00;;;;;;5053698;28;20040;-72
2024/01/10 11:20:36;;;;;;;30.92;15.27;;;3.50;1.00;;;;;;5052707;28;20036;-72
2024/01/10 11:23:25;;;;;;;29.83;14.85;;;4.00;1.00;;;;;;5053484;28;20024;-72
2024/01/10 11:25:51;;;;;;;31.73;15.15;;;3.80;1.00;;;;;;5053468;28;20028;-72
2024/01/10 11:28:17;;;;;;;28.63;14.65;;;4.30;1.00;;;;;;5053509;28;20120;-72
2024/01/10 11:30:51;;;;;;;32.22;16.63;;;4.30;1.00;;;;;;5053205;28;20029;-72
2024/01/10 11:33:20;;;;;;;29.85;15.48;;;4.60;1.00;;;;;;5052893;28;20544;-72
2024/01/10 11:36:13;;;;;;;35.60;16.95;;;4.00;1.00;;;;;;5053044;28;20083;-72
2024/01/10 11:38:43;;;;;;;33.53;16.67;;;3.10;1.00;;;;;;5053044;28;20032;-72
2024/01/10 11:41:12;;;;;;;34.05;16.60;;;2.80;1.00;;;;;;5052416;28;20041;-71
2024/01/10 11:43:38;;;;;;;34.40;16.35;;;2.60;1.00;;;;;;5052233;28;20392;-71
2024/01/10 11:46:06;;;;;;;33.40;17.02;;;2.40;1.00;;;;;;5053038;28;20021;-72
2024/01/10 11:48:32;;;;;;;31.58;14.50;;;2.40;1.00;;;;;;5052815;28;20109;-71
2024/01/10 11:50:59;;;;;;;35.58;15.82;;;2.10;1.00;;;;;;5053264;28;20063;-72
2024/01/10 11:53:42;;;;;;;35.20;17.13;;;1.50;1.00;;;;;;5053210;28;20399;-72
2024/01/10 11:56:11;;;;;;;34.10;17.10;;;2.00;1.00;;;;;;5053120;28;20029;-71
2024/01/10 11:59:00;;;;;;;30.45;14.65;;;1.90;1.00;;;;;;5052687;28;20025;-72
2024/01/10 12:01:27;;;;;;;35.33;15.68;;;1.70;1.00;;;;;;5052542;28;20073;-71
2024/01/10 12:03:53;;;;;;;30.27;15.27;;;1.40;1.00;;;;;;5053219;28;20119;-71
2024/01/10 12:06:21;;;;;;;34.63;16.70;;;1.40;1.00;;;;;;5052507;28;20017;-71
2024/01/10 12:08:46;;;;;;;31.10;14.80;;;1.40;1.00;;;;;;5052954;28;20559;-70
2024/01/10 12:11:12;;;;;;;32.45;15.63;;;1.20;1.00;;;;;;5052544;28;20025;-71
2024/01/10 12:13:38;;;;;;;40.80;17.75;;;;;;;;;;5053083;28;20060;-71
2024/01/10 12:16:05;;;;;;;32.50;15.35;;;1.50;1.00;;;;;;5052922;28;20076;-71
2024/01/10 12:18:30;;;;;;;30.60;15.00;;;1.50;1.00;;;;;;5052909;28;20032;-71
2024/01/10 12:20:56;;;;;;;31.05;14.55;;;1.50;1.00;;;;;;5052495;28;20029;-72
2024/01/10 12:23:21;;;;;;;33.13;15.18;;;1.50;1.00;;;;;;5052455;28;20502;-72
2024/01/10 12:25:49;;;;;;;36.50;14.90;;;1.60;1.00;;;;;;5052784;28;20026;-71
2024/01/10 12:28:16;;;;;;;32.63;14.00;;;1.50;1.00;;;;;;5052781;28;20479;-71
2024/01/10 12:30:42;;;;;;;35.90;14.77;;;1.50;1.00;;;;;;5053886;28;20025;-72
2024/01/10 12:33:09;;;;;;;32.58;14.15;;;1.60;1.00;;;;;;5056697;28;20475;-71
2024/01/10 12:35:35;;;;;;;33.50;14.55;;;1.40;1.00;;;;;;5056484;28;20411;-71
2024/01/10 12:38:00;;;;;;;35.13;14.85;;;1.20;1.00;;;;;;5056668;28;20025;-72
2024/01/10 12:40:27;;;;;;;30.88;14.88;;;1.30;1.00;;;;;;5056231;28;20137;-71
2024/01/10 12:43:09;;;;;;;33.42;15.30;;;1.30;1.00;;;;;;5056611;28;20032;-71